createdAt,value
2018-05-27T00:00:25.766Z,12.37
2018-05-27T00:02:53.260Z,11.77
2018-05-27T00:05:20.787Z,12.40
2018-05-27T00:07:48.282Z,11.80
2018-05-27T00:10:15.780Z,12.10
2018-05-27T00:12:43.310Z,11.87
2018-05-27T00:15:10.842Z,12.33
2018-05-27T00:17:38.339Z,12.00
2018-05-27T00:20:05.863Z,11.20
2018-05-27T00:22:33.355Z,11.43
2018-05-27T00:25:01.810Z,10.67
2018-05-27T00:27:29.317Z,11.43
2018-05-27T00:29:57.587Z,10.33
2018-05-27T00:32:25.110Z,11.20
2018-05-27T00:34:52.611Z,10.07
2018-05-27T00:37:20.106Z,10.00
2018-05-27T00:39:47.641Z,10.10
2018-05-27T00:42:15.138Z,10.50
2018-05-27T00:44:42.810Z,10.73
2018-05-27T00:47:10.311Z,9.90
2018-05-27T00:49:37.809Z,10.00
2018-05-27T00:52:05.328Z,9.93
2018-05-27T00:54:32.821Z,11.67
2018-05-27T00:57:01.120Z,10.90
2018-05-27T00:59:28.617Z,10.63
2018-05-27T01:01:56.974Z,9.60
2018-05-27T01:04:25.263Z,10.30
2018-05-27T01:06:53.515Z,10.67
2018-05-27T01:09:21.039Z,9.60
2018-05-27T01:11:48.542Z,10.67
2018-05-27T01:14:16.040Z,11.20
2018-05-27T01:16:43.565Z,10.67
2018-05-27T01:19:11.071Z,10.73
2018-05-27T01:21:38.579Z,11.30
2018-05-27T01:24:06.879Z,11.20
2018-05-27T01:26:34.377Z,10.37
2018-05-27T01:29:01.902Z,10.20
2018-05-27T01:31:30.166Z,10.20
2018-05-27T01:33:57.654Z,9.77
2018-05-27T01:36:26.102Z,9.87
2018-05-27T01:38:53.585Z,9.13
2018-05-27T01:41:21.074Z,10.03
2018-05-27T01:43:48.598Z,9.53
2018-05-27T01:46:16.086Z,9.70
2018-05-27T01:48:43.578Z,11.13
2018-05-27T01:51:11.110Z,12.20
2018-05-27T01:53:38.632Z,11.67
2018-05-27T01:56:06.127Z,12.40
2018-05-27T01:58:33.663Z,13.13
2018-05-27T02:01:01.166Z,12.00
2018-05-27T02:03:28.858Z,12.70
2018-05-27T02:05:57.124Z,10.70
2018-05-27T02:08:24.630Z,12.37
2018-05-27T02:10:52.151Z,11.87
2018-05-27T02:13:20.420Z,11.23
2018-05-27T02:15:47.911Z,12.40
2018-05-27T02:18:16.360Z,11.40
2018-05-27T02:20:43.875Z,12.33
2018-05-27T02:23:12.139Z,11.63
2018-05-27T02:25:39.701Z,12.07
2018-05-27T02:28:07.214Z,12.20
2018-05-27T02:30:35.468Z,12.10
2018-05-27T02:33:03.000Z,12.20
2018-05-27T02:35:30.511Z,12.37
2018-05-27T02:37:58.024Z,11.80
2018-05-27T02:40:25.552Z,13.23
2018-05-27T02:42:53.067Z,13.60
2018-05-27T02:45:20.610Z,12.10
2018-05-27T02:47:48.111Z,12.90
2018-05-27T02:50:15.614Z,13.03
2018-05-27T02:52:43.142Z,12.67
2018-05-27T02:55:11.416Z,13.97
2018-05-27T02:57:39.675Z,13.53
2018-05-27T03:00:07.196Z,13.77
2018-05-27T03:02:34.722Z,13.20
2018-05-27T03:05:02.418Z,13.60
2018-05-27T03:07:30.696Z,14.13
2018-05-27T03:09:58.209Z,13.37
2018-05-27T03:12:26.671Z,13.60
2018-05-27T03:14:54.939Z,13.97
2018-05-27T03:17:22.471Z,14.00
2018-05-27T03:19:49.958Z,14.17
2018-05-27T03:22:17.449Z,13.70
2018-05-27T03:24:45.150Z,12.87
2018-05-27T03:27:13.409Z,13.00
2018-05-27T03:29:40.911Z,12.60
2018-05-27T03:32:09.362Z,12.97
2018-05-27T03:34:36.859Z,13.40
2018-05-27T03:37:04.384Z,14.93
2018-05-27T03:39:31.905Z,13.60
2018-05-27T03:41:59.402Z,14.67
2018-05-27T03:44:26.903Z,13.93
2018-05-27T03:46:54.431Z,13.20
2018-05-27T03:49:21.950Z,14.13
2018-05-27T03:51:49.449Z,13.07
2018-05-27T03:54:16.985Z,13.30
2018-05-27T03:56:45.239Z,13.23
2018-05-27T03:59:13.500Z,13.57
2018-05-27T04:01:41.166Z,13.27
2018-05-27T04:04:20.461Z,13.17
2018-05-27T04:06:59.847Z,13.50
2018-05-27T04:09:27.346Z,13.90
2018-05-27T04:11:54.843Z,12.47
2018-05-27T04:14:22.523Z,12.97
2018-05-27T04:16:50.023Z,13.30
2018-05-27T04:19:17.562Z,13.80
2018-05-27T04:21:45.258Z,12.90
2018-05-27T04:24:12.771Z,11.70
2018-05-27T04:26:41.054Z,13.27
2018-05-27T04:29:08.723Z,13.40
2018-05-27T04:31:36.206Z,12.60
2018-05-27T04:34:03.708Z,13.13
2018-05-27T04:36:31.258Z,12.40
2018-05-27T04:38:59.526Z,12.53
2018-05-27T04:41:27.875Z,12.30
2018-05-27T04:43:55.382Z,12.03
2018-05-27T04:46:22.887Z,12.20
2018-05-27T04:48:51.179Z,12.93
2018-05-27T04:51:19.449Z,12.33
2018-05-27T04:53:46.946Z,12.23
2018-05-27T04:56:14.617Z,12.30
2018-05-27T04:58:42.908Z,12.67
2018-05-27T05:01:10.402Z,13.20
2018-05-27T05:03:38.087Z,12.77
2018-05-27T05:06:05.599Z,12.50
2018-05-27T05:08:33.875Z,13.60
2018-05-27T05:11:01.576Z,13.03
2018-05-27T05:13:29.095Z,12.33
2018-05-27T05:15:56.614Z,12.43
2018-05-27T05:18:24.143Z,12.90
2018-05-27T05:20:51.657Z,12.43
2018-05-27T05:23:19.935Z,13.17
2018-05-27T05:25:47.454Z,12.37
2018-05-27T05:28:14.972Z,11.70
2018-05-27T05:30:42.484Z,11.80
2018-05-27T05:33:10.010Z,12.63
2018-05-27T05:35:37.521Z,13.17
2018-05-27T05:38:05.025Z,12.00
2018-05-27T05:40:32.660Z,11.87
2018-05-27T05:43:00.278Z,12.70
2018-05-27T05:45:27.775Z,13.00
2018-05-27T05:47:55.449Z,13.10
2018-05-27T05:50:22.955Z,12.37
2018-05-27T05:52:50.475Z,11.97
2018-05-27T05:55:18.058Z,12.80
2018-05-27T05:57:45.579Z,12.50
2018-05-27T06:00:13.104Z,12.40
2018-05-27T06:02:40.621Z,12.73
2018-05-27T06:05:08.127Z,12.57
2018-05-27T06:07:35.816Z,12.20
2018-05-27T06:10:03.327Z,13.40
2018-05-27T06:12:30.837Z,12.90
2018-05-27T06:14:58.385Z,12.90
2018-05-27T06:17:25.947Z,12.70
2018-05-27T06:19:53.454Z,13.27
2018-05-27T06:22:20.996Z,12.97
2018-05-27T06:24:48.511Z,12.33
2018-05-27T06:27:16.003Z,12.77
2018-05-27T06:29:44.300Z,13.50
2018-05-27T06:32:11.799Z,12.40
2018-05-27T06:34:39.298Z,12.43
2018-05-27T06:37:06.885Z,12.80
2018-05-27T06:39:34.375Z,13.00
2018-05-27T06:42:02.634Z,12.47
2018-05-27T06:44:30.309Z,13.43
2018-05-27T06:46:57.833Z,12.47
2018-05-27T06:49:25.339Z,13.20
2018-05-27T06:51:53.032Z,13.53
2018-05-27T06:54:20.536Z,13.20
2018-05-27T06:56:48.034Z,12.27
2018-05-27T06:59:15.558Z,13.57
2018-05-27T07:01:43.843Z,13.23
2018-05-27T07:04:11.382Z,13.10
2018-05-27T07:06:38.875Z,12.40
2018-05-27T07:09:06.370Z,13.90
2018-05-27T07:11:34.684Z,12.57
2018-05-27T07:14:02.170Z,14.30
2018-05-27T07:16:29.668Z,12.20
2018-05-27T07:18:57.202Z,13.60
2018-05-27T07:21:24.719Z,13.33
2018-05-27T07:23:52.982Z,14.30
2018-05-27T07:26:20.650Z,12.80
2018-05-27T07:28:48.138Z,13.90
2018-05-27T07:31:15.631Z,13.70
2018-05-27T07:33:43.307Z,13.73
2018-05-27T07:36:11.570Z,13.53
2018-05-27T07:38:39.066Z,13.43
2018-05-27T07:41:07.372Z,13.67
2018-05-27T07:43:34.865Z,13.60
2018-05-27T07:46:02.358Z,13.67
2018-05-27T07:48:29.886Z,14.00
2018-05-27T07:50:57.382Z,14.17
2018-05-27T07:53:24.874Z,12.50
2018-05-27T07:55:52.415Z,15.27
2018-05-27T07:58:19.965Z,15.10
2018-05-27T08:00:47.427Z,14.07
2018-05-27T08:03:15.732Z,16.13
2018-05-27T08:05:43.227Z,14.63
2018-05-27T08:08:10.775Z,14.00
2018-05-27T08:10:38.267Z,13.80
2018-05-27T08:13:12.865Z,14.30
2018-05-27T08:15:41.163Z,14.07
2018-05-27T08:18:08.658Z,13.10
2018-05-27T08:20:36.147Z,14.13
2018-05-27T08:23:03.822Z,12.87
2018-05-27T08:25:31.371Z,14.50
2018-05-27T08:27:58.895Z,18.57
2018-05-27T08:30:28.346Z,17.00
2018-05-27T08:32:55.844Z,13.83
2018-05-27T08:35:23.347Z,13.33
2018-05-27T08:37:51.650Z,13.83
2018-05-27T08:40:25.525Z,14.80
2018-05-27T08:42:53.212Z,13.50
2018-05-27T08:45:20.722Z,13.10
2018-05-27T08:47:48.982Z,13.47
2018-05-27T08:50:16.670Z,15.40
2018-05-27T08:52:44.941Z,17.00
2018-05-27T08:55:12.435Z,16.47
2018-05-27T08:57:40.739Z,13.83
2018-05-27T09:00:08.235Z,13.27
2018-05-27T09:02:35.763Z,13.23
2018-05-27T09:05:04.019Z,13.30
2018-05-27T09:07:31.524Z,13.70
2018-05-27T09:09:59.818Z,13.70
2018-05-27T09:12:28.221Z,12.97
2018-05-27T09:14:55.718Z,12.00
2018-05-27T09:17:23.406Z,11.23
2018-05-27T09:19:50.907Z,10.27
2018-05-27T09:22:18.407Z,9.63
2018-05-27T09:24:45.938Z,9.70
2018-05-27T09:27:14.214Z,10.93
2018-05-27T09:29:41.710Z,11.43
2018-05-27T09:32:09.391Z,11.40
2018-05-27T09:34:37.659Z,11.10
2018-05-27T09:37:05.146Z,10.20
2018-05-27T09:39:33.433Z,9.60
2018-05-27T09:42:00.931Z,10.07
2018-05-27T09:44:28.422Z,9.40
2018-05-27T09:46:55.957Z,9.40
2018-05-27T09:49:24.229Z,10.20
2018-05-27T09:51:51.719Z,9.60
2018-05-27T09:54:20.157Z,9.70
2018-05-27T09:56:47.650Z,11.07
2018-05-27T09:59:15.141Z,9.53
2018-05-27T10:01:43.426Z,8.97
2018-05-27T10:04:11.689Z,10.10
2018-05-27T10:06:39.375Z,9.83
2018-05-27T10:09:06.867Z,9.70
2018-05-27T10:11:35.123Z,9.37
2018-05-27T10:14:02.669Z,10.07
2018-05-27T10:16:30.179Z,9.57
2018-05-27T10:18:57.690Z,9.03
2018-05-27T10:21:25.238Z,9.57
2018-05-27T10:23:53.495Z,8.23
2018-05-27T10:26:21.003Z,8.20
2018-05-27T10:28:48.539Z,8.67
2018-05-27T10:31:16.031Z,8.40
2018-05-27T10:33:44.291Z,7.47
2018-05-27T10:36:11.819Z,7.23
2018-05-27T10:38:39.302Z,7.37
2018-05-27T10:41:06.791Z,7.05
2018-05-27T10:43:34.326Z,6.37
2018-05-27T10:46:01.824Z,6.83
2018-05-27T10:48:29.359Z,6.23
2018-05-27T10:50:56.852Z,7.50
2018-05-27T10:53:24.351Z,8.07
2018-05-27T10:55:51.872Z,9.07
2018-05-27T10:58:19.359Z,6.15
2018-05-27T11:00:46.858Z,6.75
2018-05-27T11:03:14.378Z,7.50
2018-05-27T11:05:42.660Z,7.78
2018-05-27T11:08:10.147Z,6.50
2018-05-27T11:10:37.834Z,6.20
2018-05-27T11:13:05.337Z,6.97
2018-05-27T11:15:32.831Z,29.10
2018-05-27T11:18:00.364Z,9.80
2018-05-27T11:20:27.854Z,6.80
2018-05-27T11:22:55.346Z,7.60
2018-05-27T11:25:23.639Z,7.37
2018-05-27T11:27:51.131Z,6.50
2018-05-27T11:30:18.634Z,7.03
2018-05-27T11:32:46.362Z,7.00
2018-05-27T11:35:13.855Z,7.97
2018-05-27T11:37:41.339Z,6.97
2018-05-27T11:40:08.851Z,6.67
2018-05-27T11:42:36.367Z,6.90
2018-05-27T11:45:03.898Z,7.30
2018-05-27T11:47:31.395Z,7.17
2018-05-27T11:49:58.883Z,7.67
2018-05-27T11:52:26.437Z,15.53
2018-05-27T11:54:53.955Z,15.37
2018-05-27T11:57:21.450Z,9.93
2018-05-27T11:59:49.114Z,8.27
2018-05-27T12:02:16.603Z,7.07
2018-05-27T12:04:44.860Z,7.63
2018-05-27T12:07:12.387Z,7.80
2018-05-27T12:09:40.035Z,8.43
2018-05-27T12:12:07.395Z,7.80
2018-05-27T12:14:34.931Z,7.43
2018-05-27T12:17:02.419Z,7.27
2018-05-27T12:19:30.117Z,7.43
2018-05-27T12:21:58.405Z,7.43
2018-05-27T12:24:26.669Z,7.77
2018-05-27T12:26:54.346Z,7.53
2018-05-27T12:29:21.849Z,10.80
2018-05-27T12:31:50.119Z,10.00
2018-05-27T12:34:17.647Z,9.73
2018-05-27T12:36:45.155Z,6.63
2018-05-27T12:39:12.646Z,7.93
2018-05-27T12:41:40.933Z,7.20
2018-05-27T12:44:09.177Z,7.40
2018-05-27T12:46:36.843Z,6.50
2018-05-27T12:49:04.335Z,6.70
2018-05-27T12:51:31.853Z,6.77
2018-05-27T12:53:59.370Z,7.87
2018-05-27T12:56:26.863Z,8.93
2018-05-27T12:58:54.378Z,23.97
2018-05-27T13:01:21.910Z,14.50
2018-05-27T13:03:49.411Z,10.80
2018-05-27T13:06:16.903Z,9.60
2018-05-27T13:08:44.571Z,9.40
2018-05-27T13:11:12.062Z,8.07
2018-05-27T13:13:39.579Z,9.13
2018-05-27T13:16:07.871Z,9.23
2018-05-27T13:18:35.366Z,10.67
2018-05-27T13:21:02.859Z,10.07
2018-05-27T13:23:30.384Z,9.50
2018-05-27T13:25:57.890Z,9.90
2018-05-27T13:28:25.380Z,9.40
2018-05-27T13:30:53.054Z,9.70
2018-05-27T13:33:20.542Z,9.57
2018-05-27T13:35:48.038Z,9.83
2018-05-27T13:38:16.327Z,9.10
2018-05-27T13:40:44.610Z,10.23
2018-05-27T13:43:12.110Z,9.20
2018-05-27T13:45:39.779Z,8.73
2018-05-27T13:48:08.051Z,9.17
2018-05-27T13:50:35.547Z,9.17
2018-05-27T13:53:03.062Z,8.47
2018-05-27T13:55:30.578Z,8.07
2018-05-27T13:57:58.823Z,8.30
2018-05-27T14:00:26.343Z,8.30
2018-05-27T14:02:53.835Z,8.83
2018-05-27T14:05:21.363Z,9.60
2018-05-27T14:07:49.622Z,9.30
2018-05-27T14:10:17.312Z,8.23
2018-05-27T14:12:45.571Z,8.00
2018-05-27T14:15:13.068Z,7.97
2018-05-27T14:17:41.506Z,8.33
2018-05-27T14:20:09.008Z,8.70
2018-05-27T14:22:36.494Z,8.80
2018-05-27T14:25:04.016Z,9.40
2018-05-27T14:27:31.506Z,8.40
2018-05-27T14:29:58.999Z,8.93
2018-05-27T14:32:26.524Z,8.50
2018-05-27T14:34:54.007Z,8.03
2018-05-27T14:37:21.494Z,7.97
2018-05-27T14:39:49.017Z,8.43
2018-05-27T14:42:16.502Z,8.40
2018-05-27T14:44:44.087Z,7.83
2018-05-27T14:47:11.707Z,8.70
2018-05-27T14:49:39.370Z,7.87
2018-05-27T14:52:07.792Z,7.80
2018-05-27T14:54:35.369Z,7.70
2018-05-27T14:57:03.115Z,7.63
2018-05-27T14:59:30.971Z,7.70
2018-05-27T15:01:58.622Z,7.07
2018-05-27T15:04:26.383Z,7.20
2018-05-27T15:06:54.138Z,7.80
2018-05-27T15:09:21.861Z,7.90
2018-05-27T15:11:49.514Z,8.20
2018-05-27T15:14:17.225Z,7.97
2018-05-27T15:16:44.868Z,8.30
2018-05-27T15:19:12.390Z,9.37
2018-05-27T15:21:40.063Z,8.70
2018-05-27T15:24:08.451Z,9.60
2018-05-27T15:26:36.088Z,8.57
2018-05-27T15:29:03.663Z,8.30
2018-05-27T15:31:31.285Z,8.67
2018-05-27T15:33:59.620Z,8.13
2018-05-27T15:36:27.121Z,7.67
2018-05-27T15:38:54.632Z,7.50
2018-05-27T15:41:22.218Z,7.60
2018-05-27T15:43:49.756Z,7.73
2018-05-27T15:46:18.029Z,7.40
2018-05-27T15:48:45.555Z,7.70
2018-05-27T15:51:13.074Z,9.03
2018-05-27T15:53:40.814Z,27.40
2018-05-27T15:56:08.358Z,15.23
2018-05-27T15:58:35.844Z,9.03
2018-05-27T16:01:03.392Z,9.40
2018-05-27T16:03:30.899Z,11.30
2018-05-27T16:05:58.664Z,10.53
2018-05-27T16:08:26.336Z,9.20
2018-05-27T16:10:53.956Z,8.60
2018-05-27T16:13:22.511Z,7.83
2018-05-27T16:15:50.010Z,8.10
2018-05-27T16:18:17.523Z,7.37
2018-05-27T16:20:45.052Z,8.40
2018-05-27T16:23:12.558Z,7.67
2018-05-27T16:25:40.823Z,7.10
2018-05-27T16:28:08.343Z,7.13
2018-05-27T16:30:35.829Z,7.43
2018-05-27T16:33:03.450Z,7.00
2018-05-27T16:35:31.708Z,7.50
2018-05-27T16:37:59.206Z,12.10
2018-05-27T16:40:26.736Z,12.47
2018-05-27T16:42:54.238Z,9.07
2018-05-27T16:45:21.744Z,9.07
2018-05-27T16:47:49.425Z,9.40
2018-05-27T16:50:16.927Z,7.50
2018-05-27T16:52:44.455Z,8.53
2018-05-27T16:55:11.938Z,7.93
2018-05-27T16:57:39.448Z,8.13
2018-05-27T17:00:06.933Z,8.37
2018-05-27T17:02:34.614Z,8.80
2018-05-27T17:05:02.119Z,8.20
2018-05-27T17:07:29.610Z,8.83
2018-05-27T17:09:57.126Z,8.23
2018-05-27T17:12:24.635Z,8.23
2018-05-27T17:14:52.119Z,8.60
2018-05-27T17:17:19.646Z,8.53
2018-05-27T17:19:47.907Z,11.30
2018-05-27T17:22:15.431Z,9.80
2018-05-27T17:24:42.923Z,8.73
2018-05-27T17:27:10.422Z,9.50
2018-05-27T17:29:38.124Z,9.23
2018-05-27T17:32:06.391Z,10.30
2018-05-27T17:34:33.900Z,10.17
2018-05-27T17:37:01.429Z,9.33
2018-05-27T17:39:28.943Z,11.17
2018-05-27T17:41:56.443Z,11.73
2018-05-27T17:44:23.975Z,8.90
2018-05-27T17:46:51.481Z,13.83
2018-05-27T17:49:19.169Z,12.73
2018-05-27T17:51:46.664Z,14.80
2018-05-27T17:54:14.169Z,13.87
2018-05-27T17:56:41.854Z,10.17
2018-05-27T17:59:09.358Z,11.50
2018-05-27T18:01:36.858Z,9.73
2018-05-27T18:04:05.151Z,9.70
2018-05-27T18:06:33.428Z,9.80
2018-05-27T18:09:00.931Z,9.47
2018-05-27T18:11:28.450Z,9.67
2018-05-27T18:13:55.939Z,9.40
2018-05-27T18:16:23.422Z,8.93
2018-05-27T18:18:51.858Z,9.60
2018-05-27T18:21:19.355Z,9.73
2018-05-27T18:23:46.864Z,9.70
2018-05-27T18:26:15.152Z,9.23
2018-05-27T18:28:43.582Z,9.37
2018-05-27T18:31:11.078Z,9.97
2018-05-27T18:33:38.789Z,10.93
2018-05-27T18:36:06.278Z,10.20
2018-05-27T18:38:33.768Z,10.10
2018-05-27T18:41:01.495Z,9.73
2018-05-27T18:43:29.755Z,10.87
2018-05-27T18:45:57.246Z,10.40
2018-05-27T18:48:25.549Z,37.37
2018-05-27T18:50:53.811Z,28.13
2018-05-27T18:53:21.307Z,12.60
2018-05-27T18:55:49.742Z,12.27
2018-05-27T18:58:17.234Z,11.67
2018-05-27T19:00:44.722Z,11.20
2018-05-27T19:03:12.254Z,10.00
2018-05-27T19:05:39.751Z,10.60
2018-05-27T19:08:07.247Z,10.53
2018-05-27T19:10:34.920Z,10.50
2018-05-27T19:13:02.544Z,10.90
2018-05-27T19:15:30.242Z,10.60
2018-05-27T19:17:57.842Z,11.73
2018-05-27T19:20:26.312Z,11.47
2018-05-27T19:22:54.183Z,10.60
2018-05-27T19:25:21.754Z,11.30
2018-05-27T19:27:49.504Z,11.10
2018-05-27T19:30:17.943Z,11.90
2018-05-27T19:32:45.549Z,12.00
2018-05-27T19:35:13.171Z,12.90
2018-05-27T19:37:40.708Z,13.27
2018-05-27T19:40:08.281Z,12.50
2018-05-27T19:42:36.018Z,12.43
2018-05-27T19:45:04.528Z,12.40
2018-05-27T19:47:32.103Z,15.23
2018-05-27T19:49:59.762Z,34.20
2018-05-27T19:52:27.396Z,15.50
2018-05-27T19:54:55.079Z,13.73
2018-05-27T19:57:23.679Z,12.67
2018-05-27T19:59:51.182Z,13.03
2018-05-27T20:02:19.443Z,12.70
2018-05-27T20:04:46.966Z,13.10
2018-05-27T20:07:14.464Z,12.93
2018-05-27T20:09:41.953Z,12.33
2018-05-27T20:12:09.632Z,13.40
2018-05-27T20:14:37.256Z,13.60
2018-05-27T20:17:04.876Z,13.70
2018-05-27T20:19:32.730Z,13.73
2018-05-27T20:22:00.360Z,13.40
2018-05-27T20:24:27.999Z,14.27
2018-05-27T20:26:56.470Z,13.27
2018-05-27T20:29:24.106Z,12.77
2018-05-27T20:31:51.789Z,14.13
2018-05-27T20:34:19.557Z,14.20
2018-05-27T20:36:47.236Z,14.07
2018-05-27T20:39:15.108Z,13.60
2018-05-27T20:41:42.641Z,14.30
2018-05-27T20:44:10.143Z,63.53
2018-05-27T20:46:37.662Z,61.20
2018-05-27T20:49:05.211Z,18.37
2018-05-27T20:51:32.710Z,13.37
2018-05-27T20:54:00.219Z,13.60
2018-05-27T20:56:28.728Z,12.90
2018-05-27T20:58:56.260Z,13.50
2018-05-27T21:01:23.756Z,13.37
2018-05-27T21:03:51.451Z,12.50
2018-05-27T21:06:18.944Z,12.53
2018-05-27T21:08:46.434Z,13.30
2018-05-27T21:11:14.271Z,13.60
2018-05-27T21:13:41.746Z,12.60
2018-05-27T21:16:09.235Z,12.30
2018-05-27T21:18:36.953Z,12.37
2018-05-27T21:21:05.202Z,14.67
2018-05-27T21:23:32.722Z,13.40
2018-05-27T21:26:01.009Z,22.50
2018-05-27T21:28:29.267Z,43.57
2018-05-27T21:30:56.767Z,17.13
2018-05-27T21:33:25.052Z,13.40
2018-05-27T21:35:53.320Z,13.07
2018-05-27T21:38:20.851Z,12.50
2018-05-27T21:40:48.345Z,11.00
2018-05-27T21:43:16.046Z,11.37
2018-05-27T21:45:43.534Z,10.90
2018-05-27T21:48:11.790Z,10.37
2018-05-27T21:50:39.311Z,10.17
2018-05-27T21:53:06.798Z,10.00
2018-05-27T21:55:34.526Z,9.43
2018-05-27T21:58:02.778Z,9.20
2018-05-27T22:00:31.023Z,9.30
2018-05-27T22:02:58.535Z,8.57
2018-05-27T22:05:26.023Z,9.27
2018-05-27T22:07:53.506Z,8.93
2018-05-27T22:10:22.001Z,8.00
2018-05-27T22:12:49.482Z,16.60
2018-05-27T22:15:17.738Z,11.90
2018-05-27T22:17:46.766Z,9.00
2018-05-27T22:20:14.242Z,7.33
2018-05-27T22:22:42.498Z,7.70
2018-05-27T22:25:10.020Z,8.33
2018-05-27T22:27:37.500Z,7.33
2018-05-27T22:30:04.981Z,7.80
2018-05-27T22:32:32.711Z,7.33
2018-05-27T22:35:00.913Z,7.47
2018-05-27T22:37:29.165Z,8.10
2018-05-27T22:39:56.866Z,6.80
2018-05-27T22:42:25.110Z,7.33
2018-05-27T22:44:52.586Z,8.00
2018-05-27T22:47:20.101Z,7.53
2018-05-27T22:49:48.346Z,7.60
2018-05-27T22:52:15.829Z,8.23
2018-05-27T22:54:43.525Z,7.10
2018-05-27T22:57:11.773Z,8.10
2018-05-27T22:59:39.257Z,8.33
2018-05-27T23:02:06.958Z,17.40
2018-05-27T23:04:35.209Z,8.90
2018-05-27T23:07:02.697Z,7.67
2018-05-27T23:09:30.211Z,7.50
2018-05-27T23:11:57.706Z,7.87
2018-05-27T23:14:25.198Z,7.40
2018-05-27T23:16:52.912Z,7.60
2018-05-27T23:19:21.213Z,6.83
2018-05-27T23:21:48.699Z,7.90
2018-05-27T23:24:16.210Z,7.50
2018-05-27T23:26:43.690Z,7.13
2018-05-27T23:29:11.369Z,7.40
2018-05-27T23:31:38.850Z,7.07
2018-05-27T23:34:07.098Z,7.53
2018-05-27T23:36:34.766Z,7.60
2018-05-27T23:39:02.250Z,7.40
2018-05-27T23:41:29.735Z,6.17
2018-05-27T23:43:57.252Z,5.90
2018-05-27T23:46:24.738Z,7.50
2018-05-27T23:48:52.226Z,6.47
2018-05-27T23:51:19.742Z,7.33
2018-05-27T23:53:47.246Z,6.40
2018-05-27T23:56:14.730Z,6.33
2018-05-27T23:58:42.434Z,7.07
